sensor_id;sensor_type;location;lat;lon;timestamp;P1;durP1;ratioP1;P2;durP2;ratioP2
70450;SDS011;58869;51.982;4.450;2022-10-16T00:01:22;2.11;;;2.10;;
70450;SDS011;58869;51.982;4.450;2022-10-16T00:03:50;1.79;;;1.79;;
70450;SDS011;58869;51.982;4.450;2022-10-16T00:06:17;1.89;;;1.89;;
70450;SDS011;58869;51.982;4.450;2022-10-16T00:08:45;1.91;;;1.91;;
70450;SDS011;58869;51.982;4.450;2022-10-16T00:11:12;1.90;;;1.90;;
70450;SDS011;58869;51.982;4.450;2022-10-16T00:13:42;1.82;;;1.82;;
70450;SDS011;58869;51.982;4.450;2022-10-16T00:16:09;1.78;;;1.77;;
70450;SDS011;58869;51.982;4.450;2022-10-16T00:18:35;1.68;;;1.66;;
70450;SDS011;58869;51.982;4.450;2022-10-16T00:21:06;1.41;;;1.40;;
70450;SDS011;58869;51.982;4.450;2022-10-16T00:23:34;1.44;;;1.44;;
70450;SDS011;58869;51.982;4.450;2022-10-16T00:26:02;1.22;;;1.22;;
70450;SDS011;58869;51.982;4.450;2022-10-16T00:28:29;1.29;;;1.29;;
70450;SDS011;58869;51.982;4.450;2022-10-16T00:30:55;1.38;;;1.37;;
70450;SDS011;58869;51.982;4.450;2022-10-16T00:33:21;1.09;;;1.07;;
70450;SDS011;58869;51.982;4.450;2022-10-16T00:35:46;1.14;;;1.12;;
70450;SDS011;58869;51.982;4.450;2022-10-16T00:38:12;1.05;;;1.02;;
70450;SDS011;58869;51.982;4.450;2022-10-16T00:40:38;1.07;;;1.04;;
70450;SDS011;58869;51.982;4.450;2022-10-16T00:43:09;1.12;;;1.09;;
70450;SDS011;58869;51.982;4.450;2022-10-16T00:45:58;1.32;;;1.26;;
70450;SDS011;58869;51.982;4.450;2022-10-16T00:48:24;1.36;;;1.31;;
70450;SDS011;58869;51.982;4.450;2022-10-16T00:50:50;1.23;;;1.18;;
70450;SDS011;58869;51.982;4.450;2022-10-16T00:53:18;1.47;;;1.42;;
70450;SDS011;58869;51.982;4.450;2022-10-16T00:55:44;1.72;;;1.66;;
70450;SDS011;58869;51.982;4.450;2022-10-16T00:58:11;1.82;;;1.75;;
70450;SDS011;58869;51.982;4.450;2022-10-16T01:00:36;2.07;;;2.01;;
70450;SDS011;58869;51.982;4.450;2022-10-16T01:03:02;2.10;;;2.06;;
70450;SDS011;58869;51.982;4.450;2022-10-16T01:05:39;1.90;;;1.87;;
70450;SDS011;58869;51.982;4.450;2022-10-16T01:08:16;2.05;;;2.03;;
70450;SDS011;58869;51.982;4.450;2022-10-16T01:13:32;1.93;;;1.92;;
70450;SDS011;58869;51.982;4.450;2022-10-16T01:16:08;2.13;;;2.13;;
70450;SDS011;58869;51.982;4.450;2022-10-16T01:18:46;2.14;;;2.14;;
70450;SDS011;58869;51.982;4.450;2022-10-16T01:21:28;2.13;;;2.13;;
70450;SDS011;58869;51.982;4.450;2022-10-16T01:24:07;1.93;;;1.93;;
70450;SDS011;58869;51.982;4.450;2022-10-16T01:27:15;1.92;;;1.92;;
70450;SDS011;58869;51.982;4.450;2022-10-16T01:37:48;2.03;;;2.03;;
70450;SDS011;58869;51.982;4.450;2022-10-16T01:40:32;1.96;;;1.96;;
70450;SDS011;58869;51.982;4.450;2022-10-16T01:43:02;1.89;;;1.89;;
70450;SDS011;58869;51.982;4.450;2022-10-16T01:45:32;1.95;;;1.95;;
70450;SDS011;58869;51.982;4.450;2022-10-16T01:48:00;1.92;;;1.92;;
70450;SDS011;58869;51.982;4.450;2022-10-16T01:50:31;2.01;;;2.01;;
70450;SDS011;58869;51.982;4.450;2022-10-16T01:52:59;2.24;;;2.24;;
70450;SDS011;58869;51.982;4.450;2022-10-16T01:55:29;2.15;;;2.15;;
70450;SDS011;58869;51.982;4.450;2022-10-16T01:57:59;2.40;;;2.40;;
70450;SDS011;58869;51.982;4.450;2022-10-16T02:00:27;2.45;;;2.45;;
70450;SDS011;58869;51.982;4.450;2022-10-16T02:02:55;2.85;;;2.85;;
70450;SDS011;58869;51.982;4.450;2022-10-16T02:05:28;2.53;;;2.53;;
70450;SDS011;58869;51.982;4.450;2022-10-16T02:08:05;2.67;;;2.67;;
70450;SDS011;58869;51.982;4.450;2022-10-16T02:10:31;2.68;;;2.68;;
70450;SDS011;58869;51.982;4.450;2022-10-16T02:12:58;2.40;;;2.40;;
70450;SDS011;58869;51.982;4.450;2022-10-16T02:15:28;2.72;;;2.72;;
70450;SDS011;58869;51.982;4.450;2022-10-16T02:17:54;2.71;;;2.71;;
70450;SDS011;58869;51.982;4.450;2022-10-16T02:20:22;2.64;;;2.64;;
70450;SDS011;58869;51.982;4.450;2022-10-16T02:22:52;2.47;;;2.47;;
70450;SDS011;58869;51.982;4.450;2022-10-16T02:25:22;2.56;;;2.56;;
70450;SDS011;58869;51.982;4.450;2022-10-16T02:27:53;2.71;;;2.71;;
70450;SDS011;58869;51.982;4.450;2022-10-16T02:30:45;2.47;;;2.47;;
70450;SDS011;58869;51.982;4.450;2022-10-16T02:33:16;2.44;;;2.44;;
70450;SDS011;58869;51.982;4.450;2022-10-16T02:35:44;2.52;;;2.52;;
70450;SDS011;58869;51.982;4.450;2022-10-16T02:38:16;2.45;;;2.45;;
70450;SDS011;58869;51.982;4.450;2022-10-16T02:40:43;2.43;;;2.43;;
70450;SDS011;58869;51.982;4.450;2022-10-16T02:43:09;2.27;;;2.27;;
70450;SDS011;58869;51.982;4.450;2022-10-16T02:45:36;2.25;;;2.25;;
70450;SDS011;58869;51.982;4.450;2022-10-16T02:48:02;2.63;;;2.63;;
70450;SDS011;58869;51.982;4.450;2022-10-16T02:50:28;2.28;;;2.28;;
70450;SDS011;58869;51.982;4.450;2022-10-16T02:52:53;2.25;;;2.25;;
70450;SDS011;58869;51.982;4.450;2022-10-16T02:55:19;2.15;;;2.15;;
70450;SDS011;58869;51.982;4.450;2022-10-16T02:57:44;2.12;;;2.12;;
70450;SDS011;58869;51.982;4.450;2022-10-16T03:00:11;2.05;;;2.05;;
70450;SDS011;58869;51.982;4.450;2022-10-16T03:02:39;2.17;;;2.15;;
70450;SDS011;58869;51.982;4.450;2022-10-16T03:05:04;2.33;;;2.32;;
70450;SDS011;58869;51.982;4.450;2022-10-16T03:07:30;1.97;;;1.97;;
70450;SDS011;58869;51.982;4.450;2022-10-16T03:09:55;1.89;;;1.89;;
70450;SDS011;58869;51.982;4.450;2022-10-16T03:12:21;2.06;;;2.06;;
70450;SDS011;58869;51.982;4.450;2022-10-16T03:14:46;1.98;;;1.98;;
70450;SDS011;58869;51.982;4.450;2022-10-16T03:17:12;2.15;;;2.15;;
70450;SDS011;58869;51.982;4.450;2022-10-16T03:19:38;2.30;;;2.29;;
70450;SDS011;58869;51.982;4.450;2022-10-16T03:22:04;2.36;;;2.36;;
70450;SDS011;58869;51.982;4.450;2022-10-16T03:24:29;1.89;;;1.89;;
70450;SDS011;58869;51.982;4.450;2022-10-16T03:26:55;1.95;;;1.95;;
70450;SDS011;58869;51.982;4.450;2022-10-16T03:29:20;1.95;;;1.95;;
70450;SDS011;58869;51.982;4.450;2022-10-16T03:31:46;1.93;;;1.93;;
70450;SDS011;58869;51.982;4.450;2022-10-16T03:34:13;2.04;;;2.04;;
70450;SDS011;58869;51.982;4.450;2022-10-16T03:36:39;1.94;;;1.94;;
70450;SDS011;58869;51.982;4.450;2022-10-16T03:39:04;1.77;;;1.77;;
70450;SDS011;58869;51.982;4.450;2022-10-16T03:41:29;1.94;;;1.92;;
70450;SDS011;58869;51.982;4.450;2022-10-16T03:43:55;1.87;;;1.85;;
70450;SDS011;58869;51.982;4.450;2022-10-16T03:46:20;1.90;;;1.90;;
70450;SDS011;58869;51.982;4.450;2022-10-16T03:48:46;1.86;;;1.85;;
70450;SDS011;58869;51.982;4.450;2022-10-16T03:51:11;2.03;;;1.99;;
70450;SDS011;58869;51.982;4.450;2022-10-16T03:53:37;1.90;;;1.86;;
70450;SDS011;58869;51.982;4.450;2022-10-16T03:56:02;2.20;;;2.16;;
70450;SDS011;58869;51.982;4.450;2022-10-16T03:58:28;1.89;;;1.86;;
70450;SDS011;58869;51.982;4.450;2022-10-16T04:00:53;2.03;;;1.99;;
70450;SDS011;58869;51.982;4.450;2022-10-16T04:03:18;1.97;;;1.93;;
70450;SDS011;58869;51.982;4.450;2022-10-16T04:05:44;1.90;;;1.85;;
70450;SDS011;58869;51.982;4.450;2022-10-16T04:08:09;2.13;;;2.09;;
70450;SDS011;58869;51.982;4.450;2022-10-16T04:10:35;1.95;;;1.91;;
70450;SDS011;58869;51.982;4.450;2022-10-16T04:13:01;1.95;;;1.92;;
70450;SDS011;58869;51.982;4.450;2022-10-16T04:15:26;1.97;;;1.93;;
70450;SDS011;58869;51.982;4.450;2022-10-16T04:17:52;2.08;;;2.03;;
70450;SDS011;58869;51.982;4.450;2022-10-16T04:20:18;1.78;;;1.74;;
70450;SDS011;58869;51.982;4.450;2022-10-16T04:22:44;1.97;;;1.95;;
70450;SDS011;58869;51.982;4.450;2022-10-16T04:25:10;2.20;;;2.18;;
70450;SDS011;58869;51.982;4.450;2022-10-16T04:27:37;1.89;;;1.89;;
70450;SDS011;58869;51.982;4.450;2022-10-16T04:30:03;2.01;;;2.01;;
70450;SDS011;58869;51.982;4.450;2022-10-16T04:32:29;2.16;;;2.16;;
70450;SDS011;58869;51.982;4.450;2022-10-16T04:34:54;2.04;;;2.04;;
70450;SDS011;58869;51.982;4.450;2022-10-16T04:37:24;1.87;;;1.87;;
70450;SDS011;58869;51.982;4.450;2022-10-16T04:39:50;2.13;;;2.13;;
70450;SDS011;58869;51.982;4.450;2022-10-16T04:42:16;1.95;;;1.95;;
70450;SDS011;58869;51.982;4.450;2022-10-16T04:44:41;1.97;;;1.97;;
70450;SDS011;58869;51.982;4.450;2022-10-16T04:47:07;1.87;;;1.87;;
70450;SDS011;58869;51.982;4.450;2022-10-16T04:49:33;1.94;;;1.94;;
70450;SDS011;58869;51.982;4.450;2022-10-16T04:51:58;1.88;;;1.88;;
70450;SDS011;58869;51.982;4.450;2022-10-16T04:54:23;1.82;;;1.82;;
70450;SDS011;58869;51.982;4.450;2022-10-16T04:56:49;1.89;;;1.89;;
70450;SDS011;58869;51.982;4.450;2022-10-16T04:59:17;2.11;;;2.11;;
70450;SDS011;58869;51.982;4.450;2022-10-16T05:01:43;2.06;;;2.06;;
70450;SDS011;58869;51.982;4.450;2022-10-16T05:04:09;2.05;;;1.99;;
70450;SDS011;58869;51.982;4.450;2022-10-16T05:06:34;2.27;;;2.19;;
70450;SDS011;58869;51.982;4.450;2022-10-16T05:09:01;2.36;;;2.28;;
70450;SDS011;58869;51.982;4.450;2022-10-16T05:11:26;2.09;;;2.02;;
70450;SDS011;58869;51.982;4.450;2022-10-16T05:13:52;2.22;;;2.15;;
70450;SDS011;58869;51.982;4.450;2022-10-16T05:16:17;2.02;;;1.97;;
70450;SDS011;58869;51.982;4.450;2022-10-16T05:18:43;1.94;;;1.89;;
70450;SDS011;58869;51.982;4.450;2022-10-16T05:21:08;1.96;;;1.96;;
70450;SDS011;58869;51.982;4.450;2022-10-16T05:23:34;2.26;;;2.26;;
70450;SDS011;58869;51.982;4.450;2022-10-16T05:25:59;2.15;;;2.15;;
70450;SDS011;58869;51.982;4.450;2022-10-16T05:28:25;2.08;;;2.08;;
70450;SDS011;58869;51.982;4.450;2022-10-16T05:30:52;2.32;;;2.30;;
70450;SDS011;58869;51.982;4.450;2022-10-16T05:33:19;2.41;;;2.37;;
70450;SDS011;58869;51.982;4.450;2022-10-16T05:35:45;2.33;;;2.28;;
70450;SDS011;58869;51.982;4.450;2022-10-16T05:38:11;2.25;;;2.25;;
70450;SDS011;58869;51.982;4.450;2022-10-16T05:40:37;2.16;;;2.16;;
70450;SDS011;58869;51.982;4.450;2022-10-16T05:43:02;2.03;;;1.99;;
70450;SDS011;58869;51.982;4.450;2022-10-16T05:45:28;2.05;;;2.05;;
70450;SDS011;58869;51.982;4.450;2022-10-16T05:47:53;2.10;;;2.10;;
70450;SDS011;58869;51.982;4.450;2022-10-16T05:50:19;2.14;;;2.14;;
70450;SDS011;58869;51.982;4.450;2022-10-16T05:52:44;2.25;;;2.25;;
70450;SDS011;58869;51.982;4.450;2022-10-16T05:55:10;2.33;;;2.25;;
70450;SDS011;58869;51.982;4.450;2022-10-16T05:57:35;2.21;;;2.13;;
70450;SDS011;58869;51.982;4.450;2022-10-16T06:00:00;2.51;;;2.43;;
70450;SDS011;58869;51.982;4.450;2022-10-16T06:02:26;2.45;;;2.35;;
70450;SDS011;58869;51.982;4.450;2022-10-16T06:04:52;2.22;;;2.09;;
70450;SDS011;58869;51.982;4.450;2022-10-16T06:07:18;2.28;;;2.17;;
70450;SDS011;58869;51.982;4.450;2022-10-16T06:09:47;2.28;;;2.17;;
70450;SDS011;58869;51.982;4.450;2022-10-16T06:12:13;2.41;;;2.28;;
70450;SDS011;58869;51.982;4.450;2022-10-16T06:14:39;2.12;;;2.02;;
70450;SDS011;58869;51.982;4.450;2022-10-16T06:17:04;2.27;;;2.24;;
70450;SDS011;58869;51.982;4.450;2022-10-16T06:19:30;2.05;;;2.02;;
70450;SDS011;58869;51.982;4.450;2022-10-16T06:21:56;2.12;;;2.00;;
70450;SDS011;58869;51.982;4.450;2022-10-16T06:24:23;2.26;;;2.12;;
70450;SDS011;58869;51.982;4.450;2022-10-16T06:26:48;2.35;;;2.19;;
70450;SDS011;58869;51.982;4.450;2022-10-16T06:29:14;2.26;;;2.02;;
70450;SDS011;58869;51.982;4.450;2022-10-16T06:31:39;2.35;;;2.09;;
70450;SDS011;58869;51.982;4.450;2022-10-16T06:34:05;1.98;;;1.73;;
70450;SDS011;58869;51.982;4.450;2022-10-16T06:36:34;2.03;;;1.72;;
70450;SDS011;58869;51.982;4.450;2022-10-16T06:39:00;2.08;;;1.73;;
70450;SDS011;58869;51.982;4.450;2022-10-16T06:41:25;2.18;;;1.82;;
70450;SDS011;58869;51.982;4.450;2022-10-16T06:43:51;2.69;;;2.24;;
70450;SDS011;58869;51.982;4.450;2022-10-16T06:46:18;2.74;;;2.33;;
70450;SDS011;58869;51.982;4.450;2022-10-16T06:48:46;2.61;;;2.27;;
70450;SDS011;58869;51.982;4.450;2022-10-16T06:51:16;2.56;;;2.22;;
70450;SDS011;58869;51.982;4.450;2022-10-16T06:53:46;2.57;;;2.28;;
70450;SDS011;58869;51.982;4.450;2022-10-16T06:56:23;2.65;;;2.35;;
70450;SDS011;58869;51.982;4.450;2022-10-16T06:58:50;2.35;;;2.10;;
70450;SDS011;58869;51.982;4.450;2022-10-16T07:01:17;2.27;;;2.08;;
70450;SDS011;58869;51.982;4.450;2022-10-16T07:03:44;2.13;;;1.94;;
70450;SDS011;58869;51.982;4.450;2022-10-16T07:06:11;2.32;;;2.11;;
70450;SDS011;58869;51.982;4.450;2022-10-16T07:08:39;2.31;;;2.07;;
70450;SDS011;58869;51.982;4.450;2022-10-16T07:11:06;2.58;;;2.29;;
70450;SDS011;58869;51.982;4.450;2022-10-16T07:13:37;2.75;;;2.44;;
70450;SDS011;58869;51.982;4.450;2022-10-16T07:16:14;2.60;;;2.33;;
70450;SDS011;58869;51.982;4.450;2022-10-16T07:18:42;2.39;;;2.18;;
70450;SDS011;58869;51.982;4.450;2022-10-16T07:21:11;2.43;;;2.22;;
70450;SDS011;58869;51.982;4.450;2022-10-16T07:23:38;2.53;;;2.33;;
70450;SDS011;58869;51.982;4.450;2022-10-16T07:26:05;2.36;;;2.17;;
70450;SDS011;58869;51.982;4.450;2022-10-16T07:28:31;2.26;;;2.08;;
70450;SDS011;58869;51.982;4.450;2022-10-16T07:31:01;2.35;;;2.12;;
70450;SDS011;58869;51.982;4.450;2022-10-16T07:33:31;2.48;;;2.24;;
70450;SDS011;58869;51.982;4.450;2022-10-16T07:35:57;2.47;;;2.22;;
70450;SDS011;58869;51.982;4.450;2022-10-16T07:38:23;2.54;;;2.28;;
70450;SDS011;58869;51.982;4.450;2022-10-16T07:40:59;2.74;;;2.38;;
70450;SDS011;58869;51.982;4.450;2022-10-16T07:43:27;2.80;;;2.38;;
70450;SDS011;58869;51.982;4.450;2022-10-16T07:45:53;2.75;;;2.36;;
70450;SDS011;58869;51.982;4.450;2022-10-16T07:48:20;3.02;;;2.58;;
70450;SDS011;58869;51.982;4.450;2022-10-16T07:50:47;2.80;;;2.41;;
70450;SDS011;58869;51.982;4.450;2022-10-16T07:53:12;2.77;;;2.41;;
70450;SDS011;58869;51.982;4.450;2022-10-16T07:55:38;2.47;;;2.18;;
70450;SDS011;58869;51.982;4.450;2022-10-16T07:58:04;2.47;;;2.14;;
70450;SDS011;58869;51.982;4.450;2022-10-16T08:00:30;2.53;;;2.18;;
70450;SDS011;58869;51.982;4.450;2022-10-16T08:02:56;2.74;;;2.36;;
70450;SDS011;58869;51.982;4.450;2022-10-16T08:05:25;2.85;;;2.41;;
70450;SDS011;58869;51.982;4.450;2022-10-16T08:07:52;2.79;;;2.39;;
70450;SDS011;58869;51.982;4.450;2022-10-16T08:10:18;2.89;;;2.48;;
70450;SDS011;58869;51.982;4.450;2022-10-16T08:12:45;2.76;;;2.34;;
70450;SDS011;58869;51.982;4.450;2022-10-16T08:15:10;3.00;;;2.46;;
70450;SDS011;58869;51.982;4.450;2022-10-16T08:17:35;3.18;;;2.60;;
70450;SDS011;58869;51.982;4.450;2022-10-16T08:20:01;3.48;;;2.76;;
70450;SDS011;58869;51.982;4.450;2022-10-16T08:22:27;3.15;;;2.48;;
70450;SDS011;58869;51.982;4.450;2022-10-16T08:24:52;3.46;;;2.67;;
70450;SDS011;58869;51.982;4.450;2022-10-16T08:27:18;3.92;;;3.02;;
70450;SDS011;58869;51.982;4.450;2022-10-16T08:29:43;3.30;;;2.57;;
70450;SDS011;58869;51.982;4.450;2022-10-16T08:32:09;3.25;;;2.57;;
70450;SDS011;58869;51.982;4.450;2022-10-16T08:34:34;3.32;;;2.68;;
70450;SDS011;58869;51.982;4.450;2022-10-16T08:37:00;3.15;;;2.51;;
70450;SDS011;58869;51.982;4.450;2022-10-16T08:39:25;3.57;;;2.78;;
70450;SDS011;58869;51.982;4.450;2022-10-16T08:45:01;3.53;;;2.74;;
70450;SDS011;58869;51.982;4.450;2022-10-16T08:50:12;3.33;;;2.60;;
70450;SDS011;58869;51.982;4.450;2022-10-16T08:52:40;3.58;;;2.78;;
70450;SDS011;58869;51.982;4.450;2022-10-16T08:55:16;3.39;;;2.64;;
70450;SDS011;58869;51.982;4.450;2022-10-16T08:58:11;3.96;;;2.96;;
70450;SDS011;58869;51.982;4.450;2022-10-16T09:00:39;4.22;;;3.14;;
70450;SDS011;58869;51.982;4.450;2022-10-16T09:03:17;3.97;;;2.99;;
70450;SDS011;58869;51.982;4.450;2022-10-16T09:06:05;4.21;;;3.19;;
70450;SDS011;58869;51.982;4.450;2022-10-16T09:11:52;4.75;;;3.48;;
70450;SDS011;58869;51.982;4.450;2022-10-16T09:17:07;4.34;;;3.26;;
70450;SDS011;58869;51.982;4.450;2022-10-16T09:19:55;4.62;;;3.46;;
70450;SDS011;58869;51.982;4.450;2022-10-16T09:22:44;4.19;;;3.09;;
70450;SDS011;58869;51.982;4.450;2022-10-16T09:25:11;4.52;;;3.31;;
70450;SDS011;58869;51.982;4.450;2022-10-16T09:27:42;5.22;;;3.70;;
70450;SDS011;58869;51.982;4.450;2022-10-16T09:30:18;5.07;;;3.57;;
70450;SDS011;58869;51.982;4.450;2022-10-16T09:32:47;4.60;;;3.26;;
70450;SDS011;58869;51.982;4.450;2022-10-16T09:35:22;5.03;;;3.49;;
70450;SDS011;58869;51.982;4.450;2022-10-16T09:38:01;5.05;;;3.49;;
70450;SDS011;58869;51.982;4.450;2022-10-16T09:40:28;4.90;;;3.39;;
70450;SDS011;58869;51.982;4.450;2022-10-16T09:43:20;4.73;;;3.28;;
70450;SDS011;58869;51.982;4.450;2022-10-16T09:46:48;4.67;;;3.21;;
70450;SDS011;58869;51.982;4.450;2022-10-16T09:49:05;4.90;;;3.38;;
70450;SDS011;58869;51.982;4.450;2022-10-16T09:51:45;4.81;;;3.36;;
70450;SDS011;58869;51.982;4.450;2022-10-16T09:54:13;4.90;;;3.30;;
70450;SDS011;58869;51.982;4.450;2022-10-16T09:56:40;5.39;;;3.59;;
70450;SDS011;58869;51.982;4.450;2022-10-16T09:59:16;5.30;;;3.60;;
70450;SDS011;58869;51.982;4.450;2022-10-16T10:01:47;5.60;;;3.74;;
70450;SDS011;58869;51.982;4.450;2022-10-16T10:04:16;5.62;;;3.71;;
70450;SDS011;58869;51.982;4.450;2022-10-16T10:06:43;5.81;;;3.87;;
70450;SDS011;58869;51.982;4.450;2022-10-16T10:09:18;5.68;;;3.83;;
70450;SDS011;58869;51.982;4.450;2022-10-16T10:11:56;5.62;;;3.84;;
70450;SDS011;58869;51.982;4.450;2022-10-16T10:16:50;5.10;;;3.53;;
70450;SDS011;58869;51.982;4.450;2022-10-16T10:19:18;4.64;;;3.25;;
70450;SDS011;58869;51.982;4.450;2022-10-16T10:21:49;5.29;;;3.67;;
70450;SDS011;58869;51.982;4.450;2022-10-16T10:24:18;5.17;;;3.58;;
70450;SDS011;58869;51.982;4.450;2022-10-16T10:26:47;5.54;;;3.82;;
70450;SDS011;58869;51.982;4.450;2022-10-16T10:32:30;5.64;;;3.84;;
70450;SDS011;58869;51.982;4.450;2022-10-16T10:35:11;5.41;;;3.67;;
70450;SDS011;58869;51.982;4.450;2022-10-16T10:43:39;5.90;;;3.86;;
70450;SDS011;58869;51.982;4.450;2022-10-16T10:46:17;6.44;;;4.13;;
70450;SDS011;58869;51.982;4.450;2022-10-16T10:51:37;6.14;;;3.98;;
70450;SDS011;58869;51.982;4.450;2022-10-16T10:54:19;5.59;;;3.61;;
70450;SDS011;58869;51.982;4.450;2022-10-16T10:56:57;6.59;;;4.24;;
70450;SDS011;58869;51.982;4.450;2022-10-16T11:02:37;6.12;;;4.02;;
70450;SDS011;58869;51.982;4.450;2022-10-16T11:10:54;6.81;;;4.25;;
70450;SDS011;58869;51.982;4.450;2022-10-16T11:13:30;6.52;;;4.06;;
70450;SDS011;58869;51.982;4.450;2022-10-16T11:16:02;6.44;;;4.05;;
70450;SDS011;58869;51.982;4.450;2022-10-16T11:21:12;6.44;;;4.07;;
70450;SDS011;58869;51.982;4.450;2022-10-16T11:26:17;6.07;;;3.81;;
70450;SDS011;58869;51.982;4.450;2022-10-16T11:28:50;5.93;;;3.78;;
70450;SDS011;58869;51.982;4.450;2022-10-16T11:39:29;6.01;;;3.78;;
70450;SDS011;58869;51.982;4.450;2022-10-16T11:44:34;6.28;;;3.95;;
70450;SDS011;58869;51.982;4.450;2022-10-16T11:47:23;5.58;;;3.53;;
70450;SDS011;58869;51.982;4.450;2022-10-16T11:49:53;5.67;;;3.60;;
70450;SDS011;58869;51.982;4.450;2022-10-16T11:52:28;6.01;;;3.72;;
70450;SDS011;58869;51.982;4.450;2022-10-16T11:55:39;5.90;;;3.67;;
70450;SDS011;58869;51.982;4.450;2022-10-16T11:57:53;5.96;;;3.68;;
70450;SDS011;58869;51.982;4.450;2022-10-16T12:00:28;6.99;;;4.29;;
70450;SDS011;58869;51.982;4.450;2022-10-16T12:05:52;6.48;;;4.00;;
70450;SDS011;58869;51.982;4.450;2022-10-16T12:08:40;7.35;;;4.47;;
70450;SDS011;58869;51.982;4.450;2022-10-16T12:11:09;6.73;;;4.08;;
70450;SDS011;58869;51.982;4.450;2022-10-16T12:19:25;6.26;;;3.84;;
70450;SDS011;58869;51.982;4.450;2022-10-16T12:21:54;6.54;;;4.04;;
70450;SDS011;58869;51.982;4.450;2022-10-16T12:27:04;6.06;;;3.70;;
70450;SDS011;58869;51.982;4.450;2022-10-16T12:29:33;6.82;;;4.13;;
70450;SDS011;58869;51.982;4.450;2022-10-16T12:32:29;7.48;;;4.55;;
70450;SDS011;58869;51.982;4.450;2022-10-16T12:34:57;6.54;;;3.98;;
70450;SDS011;58869;51.982;4.450;2022-10-16T12:37:26;6.54;;;4.01;;
70450;SDS011;58869;51.982;4.450;2022-10-16T12:39:58;5.99;;;3.71;;
70450;SDS011;58869;51.982;4.450;2022-10-16T12:42:38;5.99;;;3.68;;
70450;SDS011;58869;51.982;4.450;2022-10-16T12:45:23;6.32;;;3.89;;
70450;SDS011;58869;51.982;4.450;2022-10-16T12:47:56;5.03;;;3.14;;
70450;SDS011;58869;51.982;4.450;2022-10-16T12:50:36;6.15;;;3.82;;
70450;SDS011;58869;51.982;4.450;2022-10-16T12:53:04;6.01;;;3.69;;
70450;SDS011;58869;51.982;4.450;2022-10-16T13:01:19;6.19;;;3.79;;
70450;SDS011;58869;51.982;4.450;2022-10-16T13:04:15;5.83;;;3.55;;
70450;SDS011;58869;51.982;4.450;2022-10-16T13:18:03;6.77;;;4.07;;
70450;SDS011;58869;51.982;4.450;2022-10-16T13:23:23;6.35;;;3.86;;
70450;SDS011;58869;51.982;4.450;2022-10-16T13:26:01;5.38;;;3.30;;
70450;SDS011;58869;51.982;4.450;2022-10-16T13:28:38;5.23;;;3.27;;
70450;SDS011;58869;51.982;4.450;2022-10-16T13:31:04;6.82;;;4.20;;
70450;SDS011;58869;51.982;4.450;2022-10-16T13:33:31;6.33;;;3.85;;
70450;SDS011;58869;51.982;4.450;2022-10-16T13:36:02;6.62;;;4.06;;
70450;SDS011;58869;51.982;4.450;2022-10-16T13:38:30;6.76;;;4.18;;
70450;SDS011;58869;51.982;4.450;2022-10-16T13:41:01;6.04;;;3.80;;
70450;SDS011;58869;51.982;4.450;2022-10-16T13:43:41;6.51;;;4.05;;
70450;SDS011;58869;51.982;4.450;2022-10-16T13:46:15;6.04;;;3.74;;
70450;SDS011;58869;51.982;4.450;2022-10-16T13:48:44;6.56;;;4.09;;
70450;SDS011;58869;51.982;4.450;2022-10-16T13:51:23;5.84;;;3.67;;
70450;SDS011;58869;51.982;4.450;2022-10-16T13:53:49;7.09;;;4.40;;
70450;SDS011;58869;51.982;4.450;2022-10-16T13:56:16;6.36;;;3.90;;
70450;SDS011;58869;51.982;4.450;2022-10-16T13:58:44;5.61;;;3.54;;
70450;SDS011;58869;51.982;4.450;2022-10-16T14:01:20;6.16;;;3.89;;
70450;SDS011;58869;51.982;4.450;2022-10-16T14:03:50;6.26;;;3.94;;
70450;SDS011;58869;51.982;4.450;2022-10-16T14:06:17;6.40;;;4.03;;
70450;SDS011;58869;51.982;4.450;2022-10-16T14:08:50;5.97;;;3.75;;
70450;SDS011;58869;51.982;4.450;2022-10-16T14:11:24;7.28;;;4.58;;
70450;SDS011;58869;51.982;4.450;2022-10-16T14:13:50;6.65;;;4.20;;
70450;SDS011;58869;51.982;4.450;2022-10-16T14:16:21;6.77;;;4.28;;
70450;SDS011;58869;51.982;4.450;2022-10-16T14:18:53;6.30;;;4.04;;
70450;SDS011;58869;51.982;4.450;2022-10-16T14:21:22;6.15;;;3.92;;
70450;SDS011;58869;51.982;4.450;2022-10-16T14:23:47;5.81;;;3.75;;
70450;SDS011;58869;51.982;4.450;2022-10-16T14:26:14;5.92;;;3.89;;
70450;SDS011;58869;51.982;4.450;2022-10-16T14:28:42;5.85;;;3.84;;
70450;SDS011;58869;51.982;4.450;2022-10-16T14:33:57;5.63;;;3.67;;
70450;SDS011;58869;51.982;4.450;2022-10-16T14:36:24;5.63;;;3.70;;
70450;SDS011;58869;51.982;4.450;2022-10-16T14:41:27;6.06;;;3.97;;
70450;SDS011;58869;51.982;4.450;2022-10-16T14:43:54;5.99;;;3.94;;
70450;SDS011;58869;51.982;4.450;2022-10-16T14:46:22;5.96;;;3.90;;
70450;SDS011;58869;51.982;4.450;2022-10-16T14:49:17;6.51;;;4.26;;
70450;SDS011;58869;51.982;4.450;2022-10-16T14:51:46;5.59;;;3.73;;
70450;SDS011;58869;51.982;4.450;2022-10-16T14:54:13;6.15;;;4.13;;
70450;SDS011;58869;51.982;4.450;2022-10-16T14:56:47;6.12;;;4.00;;
70450;SDS011;58869;51.982;4.450;2022-10-16T14:59:19;5.75;;;3.80;;
70450;SDS011;58869;51.982;4.450;2022-10-16T15:01:51;5.98;;;3.96;;
70450;SDS011;58869;51.982;4.450;2022-10-16T15:04:17;5.97;;;3.94;;
70450;SDS011;58869;51.982;4.450;2022-10-16T15:06:43;6.56;;;4.31;;
70450;SDS011;58869;51.982;4.450;2022-10-16T15:09:09;5.53;;;3.61;;
70450;SDS011;58869;51.982;4.450;2022-10-16T15:11:35;6.58;;;4.25;;
70450;SDS011;58869;51.982;4.450;2022-10-16T15:14:01;6.51;;;4.20;;
70450;SDS011;58869;51.982;4.450;2022-10-16T15:16:28;6.04;;;3.90;;
70450;SDS011;58869;51.982;4.450;2022-10-16T15:18:55;6.82;;;4.40;;
70450;SDS011;58869;51.982;4.450;2022-10-16T15:21:26;7.40;;;4.76;;
70450;SDS011;58869;51.982;4.450;2022-10-16T15:23:54;7.36;;;4.68;;
70450;SDS011;58869;51.982;4.450;2022-10-16T15:26:22;7.06;;;4.50;;
70450;SDS011;58869;51.982;4.450;2022-10-16T15:28:48;6.53;;;4.19;;
70450;SDS011;58869;51.982;4.450;2022-10-16T15:31:13;6.55;;;4.26;;
70450;SDS011;58869;51.982;4.450;2022-10-16T15:33:39;12.28;;;8.08;;
70450;SDS011;58869;51.982;4.450;2022-10-16T15:36:04;11.56;;;7.67;;
70450;SDS011;58869;51.982;4.450;2022-10-16T15:38:31;9.17;;;6.15;;
70450;SDS011;58869;51.982;4.450;2022-10-16T15:40:56;6.75;;;4.66;;
70450;SDS011;58869;51.982;4.450;2022-10-16T15:43:23;6.88;;;4.91;;
70450;SDS011;58869;51.982;4.450;2022-10-16T15:45:59;5.70;;;4.07;;
70450;SDS011;58869;51.982;4.450;2022-10-16T15:48:30;5.99;;;4.21;;
70450;SDS011;58869;51.982;4.450;2022-10-16T15:50:57;5.70;;;4.03;;
70450;SDS011;58869;51.982;4.450;2022-10-16T15:53:22;5.62;;;3.92;;
70450;SDS011;58869;51.982;4.450;2022-10-16T15:55:48;5.78;;;4.02;;
70450;SDS011;58869;51.982;4.450;2022-10-16T15:58:14;5.25;;;3.67;;
70450;SDS011;58869;51.982;4.450;2022-10-16T16:00:39;5.83;;;4.09;;
70450;SDS011;58869;51.982;4.450;2022-10-16T16:03:05;5.82;;;4.13;;
70450;SDS011;58869;51.982;4.450;2022-10-16T16:05:30;5.49;;;3.96;;
70450;SDS011;58869;51.982;4.450;2022-10-16T16:07:56;5.53;;;4.07;;
70450;SDS011;58869;51.982;4.450;2022-10-16T16:10:22;6.11;;;4.53;;
70450;SDS011;58869;51.982;4.450;2022-10-16T16:12:47;5.06;;;3.82;;
70450;SDS011;58869;51.982;4.450;2022-10-16T16:15:16;5.73;;;4.27;;
70450;SDS011;58869;51.982;4.450;2022-10-16T16:17:42;6.31;;;4.63;;
70450;SDS011;58869;51.982;4.450;2022-10-16T16:20:09;5.66;;;4.18;;
70450;SDS011;58869;51.982;4.450;2022-10-16T16:22:35;5.42;;;4.13;;
70450;SDS011;58869;51.982;4.450;2022-10-16T16:25:00;5.28;;;4.18;;
70450;SDS011;58869;51.982;4.450;2022-10-16T16:27:26;5.58;;;4.46;;
70450;SDS011;58869;51.982;4.450;2022-10-16T16:29:51;5.15;;;4.15;;
70450;SDS011;58869;51.982;4.450;2022-10-16T16:32:17;5.11;;;4.20;;
70450;SDS011;58869;51.982;4.450;2022-10-16T16:34:42;5.06;;;4.22;;
70450;SDS011;58869;51.982;4.450;2022-10-16T16:37:07;5.35;;;4.43;;
70450;SDS011;58869;51.982;4.450;2022-10-16T16:39:33;5.15;;;4.36;;